sensor_id;sensor_type;location;lat;lon;timestamp;noise_LAeq;noise_LA_min;noise_LA_max;noise_LA01;noise_LA95
49215;Laerm;45943;53.148;8.204;2022-07-17T00:00:05;41.36;38.12;44.09;;
49215;Laerm;45943;53.148;8.204;2022-07-17T00:02:31;41.85;38.81;45.33;;
49215;Laerm;45943;53.148;8.204;2022-07-17T00:04:57;42.69;39.94;44.91;;
49215;Laerm;45943;53.148;8.204;2022-07-17T00:07:23;41.76;38.30;45.57;;
49215;Laerm;45943;53.148;8.204;2022-07-17T00:09:49;42.32;38.97;45.29;;
49215;Laerm;45943;53.148;8.204;2022-07-17T00:12:15;43.06;40.52;45.40;;
49215;Laerm;45943;53.148;8.204;2022-07-17T00:14:41;43.49;40.18;56.58;;
49215;Laerm;45943;53.148;8.204;2022-07-17T00:17:07;42.89;40.18;54.30;;
49215;Laerm;45943;53.148;8.204;2022-07-17T00:19:33;43.48;39.55;47.62;;
49215;Laerm;45943;53.148;8.204;2022-07-17T00:21:59;44.18;41.90;50.60;;
49215;Laerm;45943;53.148;8.204;2022-07-17T00:24:25;43.41;40.18;51.48;;
49215;Laerm;45943;53.148;8.204;2022-07-17T00:26:51;42.42;39.68;44.59;;
49215;Laerm;45943;53.148;8.204;2022-07-17T00:29:18;42.53;39.41;45.90;;
49215;Laerm;45943;53.148;8.204;2022-07-17T00:31:45;43.91;39.81;53.13;;
49215;Laerm;45943;53.148;8.204;2022-07-17T00:34:11;42.87;40.18;45.77;;
49215;Laerm;45943;53.148;8.204;2022-07-17T00:36:37;43.10;40.73;47.29;;
49215;Laerm;45943;53.148;8.204;2022-07-17T00:39:04;42.52;39.55;45.80;;
49215;Laerm;45943;53.148;8.204;2022-07-17T00:41:30;43.25;39.55;55.11;;
49215;Laerm;45943;53.148;8.204;2022-07-17T00:44:08;42.31;38.65;48.19;;
49215;Laerm;45943;53.148;8.204;2022-07-17T00:46:34;41.98;37.92;45.22;;
49215;Laerm;45943;53.148;8.204;2022-07-17T00:49:01;42.50;39.94;45.07;;
49215;Laerm;45943;53.148;8.204;2022-07-17T00:51:27;42.68;39.94;47.42;;
49215;Laerm;45943;53.148;8.204;2022-07-17T00:53:55;41.76;38.97;44.79;;
49215;Laerm;45943;53.148;8.204;2022-07-17T00:56:22;41.69;38.81;44.71;;
49215;Laerm;45943;53.148;8.204;2022-07-17T00:58:50;42.45;39.41;45.18;;
49215;Laerm;45943;53.148;8.204;2022-07-17T01:01:16;43.21;40.06;53.83;;
49215;Laerm;45943;53.148;8.204;2022-07-17T01:03:43;44.06;40.73;49.08;;
49215;Laerm;45943;53.148;8.204;2022-07-17T01:06:09;41.89;38.30;45.14;;
49215;Laerm;45943;53.148;8.204;2022-07-17T01:08:36;40.78;37.05;44.32;;
49215;Laerm;45943;53.148;8.204;2022-07-17T01:11:02;42.28;38.97;45.40;;
49215;Laerm;45943;53.148;8.204;2022-07-17T01:13:30;42.49;39.41;45.71;;
49215;Laerm;45943;53.148;8.204;2022-07-17T01:15:57;41.07;37.05;45.50;;
49215;Laerm;45943;53.148;8.204;2022-07-17T01:18:23;41.65;37.72;44.87;;
49215;Laerm;45943;53.148;8.204;2022-07-17T01:20:50;41.55;37.05;45.47;;
49215;Laerm;45943;53.148;8.204;2022-07-17T01:23:18;40.62;36.26;45.40;;
49215;Laerm;45943;53.148;8.204;2022-07-17T01:25:44;41.61;37.72;49.45;;
49215;Laerm;45943;53.148;8.204;2022-07-17T01:28:11;41.76;38.12;45.57;;
49215;Laerm;45943;53.148;8.204;2022-07-17T01:30:48;42.86;38.65;51.26;;
49215;Laerm;45943;53.148;8.204;2022-07-17T01:33:15;42.41;39.81;44.59;;
49215;Laerm;45943;53.148;8.204;2022-07-17T01:35:41;41.70;37.72;44.95;;
49215;Laerm;45943;53.148;8.204;2022-07-17T01:38:07;41.97;38.30;48.12;;
49215;Laerm;45943;53.148;8.204;2022-07-17T01:40:33;42.07;38.48;53.18;;
49215;Laerm;45943;53.148;8.204;2022-07-17T01:42:59;41.35;37.29;45.64;;
49215;Laerm;45943;53.148;8.204;2022-07-17T01:45:25;43.62;40.52;53.08;;
49215;Laerm;45943;53.148;8.204;2022-07-17T01:47:52;42.97;38.97;51.88;;
49215;Laerm;45943;53.148;8.204;2022-07-17T01:50:18;42.84;38.81;47.57;;
49215;Laerm;45943;53.148;8.204;2022-07-17T01:52:44;42.31;38.81;46.22;;
49215;Laerm;45943;53.148;8.204;2022-07-17T01:55:13;42.75;39.41;52.75;;
49215;Laerm;45943;53.148;8.204;2022-07-17T01:57:40;41.59;38.13;47.55;;
49215;Laerm;45943;53.148;8.204;2022-07-17T02:00:10;41.01;37.29;44.23;;
49215;Laerm;45943;53.148;8.204;2022-07-17T02:02:36;41.24;37.51;45.40;;
49215;Laerm;45943;53.148;8.204;2022-07-17T02:05:03;41.80;38.48;46.57;;
49215;Laerm;45943;53.148;8.204;2022-07-17T02:07:29;42.23;38.12;49.99;;
49215;Laerm;45943;53.148;8.204;2022-07-17T02:09:55;41.86;38.65;44.23;;
49215;Laerm;45943;53.148;8.204;2022-07-17T02:12:21;41.60;37.29;46.02;;
49215;Laerm;45943;53.148;8.204;2022-07-17T02:14:47;41.67;37.72;44.46;;
49215;Laerm;45943;53.148;8.204;2022-07-17T02:17:13;41.42;37.92;49.48;;
49215;Laerm;45943;53.148;8.204;2022-07-17T02:19:39;43.06;39.55;61.11;;
49215;Laerm;45943;53.148;8.204;2022-07-17T02:22:05;42.78;38.30;46.51;;
49215;Laerm;45943;53.148;8.204;2022-07-17T02:24:31;43.72;39.27;50.29;;
49215;Laerm;45943;53.148;8.204;2022-07-17T02:26:57;44.57;40.30;65.14;;
49215;Laerm;45943;53.148;8.204;2022-07-17T02:29:23;42.47;38.12;46.62;;
49215;Laerm;45943;53.148;8.204;2022-07-17T02:31:49;43.09;37.92;55.27;;
49215;Laerm;45943;53.148;8.204;2022-07-17T02:34:15;42.62;38.97;47.26;;
49215;Laerm;45943;53.148;8.204;2022-07-17T02:36:41;42.77;39.41;55.94;;
49215;Laerm;45943;53.148;8.204;2022-07-17T02:39:07;42.72;39.12;50.20;;
49215;Laerm;45943;53.148;8.204;2022-07-17T02:41:33;42.87;39.41;51.04;;
49215;Laerm;45943;53.148;8.204;2022-07-17T02:43:59;43.28;40.73;49.93;;
49215;Laerm;45943;53.148;8.204;2022-07-17T02:46:25;42.69;39.41;48.34;;
49215;Laerm;45943;53.148;8.204;2022-07-17T02:48:51;42.84;39.27;48.27;;
49215;Laerm;45943;53.148;8.204;2022-07-17T02:51:17;42.89;39.68;50.38;;
49215;Laerm;45943;53.148;8.204;2022-07-17T02:53:43;44.52;39.68;57.89;;
49215;Laerm;45943;53.148;8.204;2022-07-17T02:56:09;44.53;39.12;55.73;;
49215;Laerm;45943;53.148;8.204;2022-07-17T02:58:35;43.82;40.73;52.57;;
49215;Laerm;45943;53.148;8.204;2022-07-17T03:01:01;42.96;39.27;49.38;;
49215;Laerm;45943;53.148;8.204;2022-07-17T03:03:27;42.59;39.41;50.41;;
49215;Laerm;45943;53.148;8.204;2022-07-17T03:05:53;41.97;38.30;49.73;;
49215;Laerm;45943;53.148;8.204;2022-07-17T03:08:19;43.26;39.68;56.65;;
49215;Laerm;45943;53.148;8.204;2022-07-17T03:10:45;44.53;40.73;52.55;;
49215;Laerm;45943;53.148;8.204;2022-07-17T03:13:11;43.41;40.41;51.75;;
49215;Laerm;45943;53.148;8.204;2022-07-17T03:15:37;43.00;40.30;46.93;;
49215;Laerm;45943;53.148;8.204;2022-07-17T03:18:03;43.20;39.55;47.72;;
49215;Laerm;45943;53.148;8.204;2022-07-17T03:20:29;46.64;39.55;71.79;;
49215;Laerm;45943;53.148;8.204;2022-07-17T03:22:55;45.34;40.52;71.60;;
49215;Laerm;45943;53.148;8.204;2022-07-17T03:25:21;43.07;40.30;50.99;;
49215;Laerm;45943;53.148;8.204;2022-07-17T03:27:47;42.73;38.97;52.14;;
49215;Laerm;45943;53.148;8.204;2022-07-17T03:30:13;42.75;38.97;53.52;;
49215;Laerm;45943;53.148;8.204;2022-07-17T03:32:39;42.46;39.12;59.99;;
49215;Laerm;45943;53.148;8.204;2022-07-17T03:35:06;42.68;38.30;57.91;;
49215;Laerm;45943;53.148;8.204;2022-07-17T03:37:32;43.56;38.97;60.42;;
49215;Laerm;45943;53.148;8.204;2022-07-17T03:39:58;42.75;39.81;49.12;;
49215;Laerm;45943;53.148;8.204;2022-07-17T03:42:24;43.07;40.06;48.91;;
49215;Laerm;45943;53.148;8.204;2022-07-17T03:44:50;43.49;40.18;60.91;;
49215;Laerm;45943;53.148;8.204;2022-07-17T03:47:16;44.16;40.30;62.00;;
49215;Laerm;45943;53.148;8.204;2022-07-17T03:49:42;43.41;39.41;56.40;;
49215;Laerm;45943;53.148;8.204;2022-07-17T03:52:08;43.83;41.03;50.34;;
49215;Laerm;45943;53.148;8.204;2022-07-17T03:54:34;43.95;40.83;53.99;;
49215;Laerm;45943;53.148;8.204;2022-07-17T03:57:00;44.82;40.63;58.02;;
49215;Laerm;45943;53.148;8.204;2022-07-17T03:59:26;45.55;40.73;61.82;;
49215;Laerm;45943;53.148;8.204;2022-07-17T04:01:53;44.49;40.06;54.07;;
49215;Laerm;45943;53.148;8.204;2022-07-17T04:04:19;43.32;38.81;50.61;;
49215;Laerm;45943;53.148;8.204;2022-07-17T04:06:45;47.79;39.27;63.30;;
49215;Laerm;45943;53.148;8.204;2022-07-17T04:09:11;48.74;39.55;61.74;;
49215;Laerm;45943;53.148;8.204;2022-07-17T04:11:37;49.91;40.30;62.35;;
49215;Laerm;45943;53.148;8.204;2022-07-17T04:14:03;47.06;39.27;59.74;;
49215;Laerm;45943;53.148;8.204;2022-07-17T04:16:29;45.03;39.94;58.50;;
49215;Laerm;45943;53.148;8.204;2022-07-17T04:18:55;42.81;38.81;47.88;;
49215;Laerm;45943;53.148;8.204;2022-07-17T04:21:21;43.36;39.68;56.76;;
49215;Laerm;45943;53.148;8.204;2022-07-17T04:23:47;43.76;40.41;46.54;;
49215;Laerm;45943;53.148;8.204;2022-07-17T04:26:13;67.10;39.55;76.36;;
49215;Laerm;45943;53.148;8.204;2022-07-17T04:28:39;45.35;38.97;59.85;;
49215;Laerm;45943;53.148;8.204;2022-07-17T04:31:05;42.48;39.12;48.27;;
49215;Laerm;45943;53.148;8.204;2022-07-17T04:33:31;42.76;38.81;57.28;;
49215;Laerm;45943;53.148;8.204;2022-07-17T04:35:57;43.18;38.65;49.03;;
49215;Laerm;45943;53.148;8.204;2022-07-17T04:38:23;41.97;37.92;48.00;;
49215;Laerm;45943;53.148;8.204;2022-07-17T04:40:49;43.23;39.41;51.12;;
49215;Laerm;45943;53.148;8.204;2022-07-17T04:43:15;47.20;39.68;60.79;;
49215;Laerm;45943;53.148;8.204;2022-07-17T04:45:41;49.77;39.81;67.01;;
49215;Laerm;45943;53.148;8.204;2022-07-17T04:48:07;52.72;38.65;73.58;;
49215;Laerm;45943;53.148;8.204;2022-07-17T04:50:33;45.12;39.27;60.31;;
49215;Laerm;45943;53.148;8.204;2022-07-17T04:52:59;44.84;40.30;56.77;;
49215;Laerm;45943;53.148;8.204;2022-07-17T04:55:27;42.97;38.65;50.90;;
49215;Laerm;45943;53.148;8.204;2022-07-17T04:57:53;45.75;38.65;77.97;;
49215;Laerm;45943;53.148;8.204;2022-07-17T05:00:20;43.32;39.41;58.22;;
49215;Laerm;45943;53.148;8.204;2022-07-17T05:02:46;52.31;39.94;77.25;;
49215;Laerm;45943;53.148;8.204;2022-07-17T05:05:12;42.63;39.27;52.66;;
49215;Laerm;45943;53.148;8.204;2022-07-17T05:07:38;43.19;39.41;56.67;;
49215;Laerm;45943;53.148;8.204;2022-07-17T05:10:05;43.35;38.81;62.86;;
49215;Laerm;45943;53.148;8.204;2022-07-17T05:12:32;44.23;40.30;59.80;;
49215;Laerm;45943;53.148;8.204;2022-07-17T05:14:58;42.67;38.62;50.49;;
49215;Laerm;45943;53.148;8.204;2022-07-17T05:17:24;55.96;39.68;74.50;;
49215;Laerm;45943;53.148;8.204;2022-07-17T05:19:50;45.60;39.94;66.04;;
49215;Laerm;45943;53.148;8.204;2022-07-17T05:22:16;58.04;39.94;74.11;;
49215;Laerm;45943;53.148;8.204;2022-07-17T05:24:42;43.22;39.12;57.97;;
49215;Laerm;45943;53.148;8.204;2022-07-17T05:27:08;44.84;40.06;71.48;;
49215;Laerm;45943;53.148;8.204;2022-07-17T05:29:34;44.10;39.41;62.49;;
49215;Laerm;45943;53.148;8.204;2022-07-17T05:32:00;44.17;40.06;64.72;;
49215;Laerm;45943;53.148;8.204;2022-07-17T05:34:26;43.57;40.52;55.55;;
49215;Laerm;45943;53.148;8.204;2022-07-17T05:36:52;44.82;40.93;58.04;;
49215;Laerm;45943;53.148;8.204;2022-07-17T05:39:18;62.01;40.52;84.41;;
49215;Laerm;45943;53.148;8.204;2022-07-17T05:41:44;55.87;42.63;73.07;;
49215;Laerm;45943;53.148;8.204;2022-07-17T05:44:10;55.05;38.97;72.81;;
49215;Laerm;45943;53.148;8.204;2022-07-17T05:46:36;50.49;38.48;72.46;;
49215;Laerm;45943;53.148;8.204;2022-07-17T05:49:02;50.81;38.97;72.27;;
49215;Laerm;45943;53.148;8.204;2022-07-17T05:51:28;56.50;47.88;70.51;;
49215;Laerm;45943;53.148;8.204;2022-07-17T05:53:54;54.32;50.53;70.28;;
49215;Laerm;45943;53.148;8.204;2022-07-17T05:56:20;55.19;48.60;68.54;;
49215;Laerm;45943;53.148;8.204;2022-07-17T05:58:46;56.11;46.98;71.29;;
49215;Laerm;45943;53.148;8.204;2022-07-17T06:01:12;49.03;45.99;63.30;;
49215;Laerm;45943;53.148;8.204;2022-07-17T06:03:38;47.79;45.07;62.14;;
49215;Laerm;45943;53.148;8.204;2022-07-17T06:06:04;48.01;45.18;58.83;;
49215;Laerm;45943;53.148;8.204;2022-07-17T06:08:30;49.63;45.80;65.69;;
49215;Laerm;45943;53.148;8.204;2022-07-17T06:10:56;50.75;45.43;75.15;;
49215;Laerm;45943;53.148;8.204;2022-07-17T06:13:22;49.39;45.43;63.50;;
49215;Laerm;45943;53.148;8.204;2022-07-17T06:15:48;49.03;45.03;58.68;;
49215;Laerm;45943;53.148;8.204;2022-07-17T06:18:14;51.31;44.91;69.39;;
49215;Laerm;45943;53.148;8.204;2022-07-17T06:20:40;52.22;44.71;60.40;;
49215;Laerm;45943;53.148;8.204;2022-07-17T06:23:06;62.76;49.24;78.85;;
49215;Laerm;45943;53.148;8.204;2022-07-17T06:25:32;53.10;49.23;68.91;;
49215;Laerm;45943;53.148;8.204;2022-07-17T06:27:58;51.62;48.78;69.60;;
49215;Laerm;45943;53.148;8.204;2022-07-17T06:30:24;53.10;48.80;68.98;;
49215;Laerm;45943;53.148;8.204;2022-07-17T06:32:50;53.31;48.64;72.18;;
49215;Laerm;45943;53.148;8.204;2022-07-17T06:35:16;57.98;47.88;86.37;;
49215;Laerm;45943;53.148;8.204;2022-07-17T06:37:42;60.76;47.60;71.42;;
49215;Laerm;45943;53.148;8.204;2022-07-17T06:40:09;51.78;47.05;71.00;;
49215;Laerm;45943;53.148;8.204;2022-07-17T06:42:35;55.19;47.10;75.80;;
49215;Laerm;45943;53.148;8.204;2022-07-17T06:45:01;60.05;45.87;76.17;;
49215;Laerm;45943;53.148;8.204;2022-07-17T06:47:27;48.31;45.50;56.77;;
49215;Laerm;45943;53.148;8.204;2022-07-17T06:49:53;48.64;45.93;58.92;;
49215;Laerm;45943;53.148;8.204;2022-07-17T06:52:19;49.84;45.61;68.03;;
49215;Laerm;45943;53.148;8.204;2022-07-17T06:54:45;50.26;45.67;63.83;;
49215;Laerm;45943;53.148;8.204;2022-07-17T06:57:11;48.97;45.61;67.41;;
49215;Laerm;45943;53.148;8.204;2022-07-17T06:59:37;53.90;45.77;70.82;;
49215;Laerm;45943;53.148;8.204;2022-07-17T07:02:03;54.22;45.40;71.98;;
49215;Laerm;45943;53.148;8.204;2022-07-17T07:04:29;57.88;49.51;75.16;;
49215;Laerm;45943;53.148;8.204;2022-07-17T07:06:55;59.68;45.54;81.28;;
49215;Laerm;45943;53.148;8.204;2022-07-17T07:09:21;63.28;52.93;85.56;;
49215;Laerm;45943;53.148;8.204;2022-07-17T07:11:47;60.81;49.50;78.95;;
49215;Laerm;45943;53.148;8.204;2022-07-17T07:14:13;65.96;48.83;76.34;;
49215;Laerm;45943;53.148;8.204;2022-07-17T07:16:39;64.51;48.53;73.32;;
49215;Laerm;45943;53.148;8.204;2022-07-17T07:19:05;66.33;53.06;74.96;;
49215;Laerm;45943;53.148;8.204;2022-07-17T07:21:31;70.59;52.85;84.49;;
49215;Laerm;45943;53.148;8.204;2022-07-17T07:23:57;67.00;52.04;84.74;;
49215;Laerm;45943;53.148;8.204;2022-07-17T07:26:23;63.22;48.60;79.48;;
49215;Laerm;45943;53.148;8.204;2022-07-17T07:28:49;64.01;46.08;80.68;;
49215;Laerm;45943;53.148;8.204;2022-07-17T07:31:15;54.41;45.54;67.45;;
49215;Laerm;45943;53.148;8.204;2022-07-17T07:33:43;56.87;43.36;77.32;;
49215;Laerm;45943;53.148;8.204;2022-07-17T07:36:10;60.43;45.57;78.49;;
49215;Laerm;45943;53.148;8.204;2022-07-17T07:38:36;63.96;47.62;80.81;;
49215;Laerm;45943;53.148;8.204;2022-07-17T07:41:02;56.86;47.44;69.66;;
49215;Laerm;45943;53.148;8.204;2022-07-17T07:43:29;49.59;47.10;58.04;;
49215;Laerm;45943;53.148;8.204;2022-07-17T07:45:55;50.19;46.33;66.11;;
49215;Laerm;45943;53.148;8.204;2022-07-17T07:48:21;55.01;45.03;75.64;;
49215;Laerm;45943;53.148;8.204;2022-07-17T07:50:47;54.64;48.70;71.18;;
49215;Laerm;45943;53.148;8.204;2022-07-17T07:53:13;55.72;49.31;71.64;;
49215;Laerm;45943;53.148;8.204;2022-07-17T07:55:39;57.38;49.24;77.06;;
49215;Laerm;45943;53.148;8.204;2022-07-17T07:58:08;56.08;49.60;79.33;;
49215;Laerm;45943;53.148;8.204;2022-07-17T08:00:35;57.14;49.21;75.43;;
49215;Laerm;45943;53.148;8.204;2022-07-17T08:03:01;54.57;46.94;72.17;;
49215;Laerm;45943;53.148;8.204;2022-07-17T08:05:27;58.37;47.24;83.59;;
49215;Laerm;45943;53.148;8.204;2022-07-17T08:07:53;65.76;53.87;76.78;;
49215;Laerm;45943;53.148;8.204;2022-07-17T08:10:19;60.89;46.78;75.73;;
49215;Laerm;45943;53.148;8.204;2022-07-17T08:12:45;58.01;45.80;75.53;;
49215;Laerm;45943;53.148;8.204;2022-07-17T08:15:13;60.55;51.35;78.55;;
49215;Laerm;45943;53.148;8.204;2022-07-17T08:17:40;62.55;46.20;77.60;;
49215;Laerm;45943;53.148;8.204;2022-07-17T08:20:06;59.19;45.87;77.84;;
49215;Laerm;45943;53.148;8.204;2022-07-17T08:22:33;62.76;46.83;77.85;;
49215;Laerm;45943;53.148;8.204;2022-07-17T08:24:58;64.45;50.52;73.88;;
49215;Laerm;45943;53.148;8.204;2022-07-17T08:27:24;64.70;51.58;73.56;;
49215;Laerm;45943;53.148;8.204;2022-07-17T08:29:50;59.14;46.11;76.03;;
49215;Laerm;45943;53.148;8.204;2022-07-17T08:32:16;60.87;55.38;75.72;;
49215;Laerm;45943;53.148;8.204;2022-07-17T08:34:42;59.25;54.29;75.98;;
49215;Laerm;45943;53.148;8.204;2022-07-17T08:37:08;58.47;54.42;72.64;;
49215;Laerm;45943;53.148;8.204;2022-07-17T08:39:34;62.36;54.71;75.84;;
49215;Laerm;45943;53.148;8.204;2022-07-17T08:42:03;60.89;55.74;77.18;;
49215;Laerm;45943;53.148;8.204;2022-07-17T08:44:29;57.15;54.67;67.42;;
49215;Laerm;45943;53.148;8.204;2022-07-17T08:46:56;57.56;54.81;65.45;;
49215;Laerm;45943;53.148;8.204;2022-07-17T08:49:22;57.39;54.80;61.91;;
49215;Laerm;45943;53.148;8.204;2022-07-17T08:51:49;60.89;54.73;75.47;;
49215;Laerm;45943;53.148;8.204;2022-07-17T08:54:15;57.37;54.74;63.35;;
49215;Laerm;45943;53.148;8.204;2022-07-17T08:56:42;58.51;53.14;69.40;;
49215;Laerm;45943;53.148;8.204;2022-07-17T08:59:08;55.44;53.13;66.99;;
49215;Laerm;45943;53.148;8.204;2022-07-17T09:01:34;56.00;53.43;60.98;;
49215;Laerm;45943;53.148;8.204;2022-07-17T09:04:03;56.10;53.02;59.49;;
49215;Laerm;45943;53.148;8.204;2022-07-17T09:06:33;56.37;53.10;69.91;;
49215;Laerm;45943;53.148;8.204;2022-07-17T09:09:20;55.88;53.53;69.58;;
49215;Laerm;45943;53.148;8.204;2022-07-17T09:11:49;55.89;53.23;64.41;;
49215;Laerm;45943;53.148;8.204;2022-07-17T09:14:17;56.42;53.03;64.06;;
49215;Laerm;45943;53.148;8.204;2022-07-17T09:16:53;55.96;53.23;63.27;;
49215;Laerm;45943;53.148;8.204;2022-07-17T09:19:27;56.00;53.31;67.68;;
49215;Laerm;45943;53.148;8.204;2022-07-17T09:22:13;60.99;53.19;75.34;;
49215;Laerm;45943;53.148;8.204;2022-07-17T09:24:55;55.88;53.41;65.57;;
49215;Laerm;45943;53.148;8.204;2022-07-17T09:30:06;57.40;53.16;66.34;;
49215;Laerm;45943;53.148;8.204;2022-07-17T09:32:34;58.60;55.11;73.40;;
49215;Laerm;45943;53.148;8.204;2022-07-17T09:35:02;58.23;55.28;72.90;;
49215;Laerm;45943;53.148;8.204;2022-07-17T09:37:30;58.82;54.94;68.20;;
49215;Laerm;45943;53.148;8.204;2022-07-17T09:39:57;58.97;54.37;69.12;;
49215;Laerm;45943;53.148;8.204;2022-07-17T09:42:32;60.47;53.29;77.53;;
49215;Laerm;45943;53.148;8.204;2022-07-17T09:45:03;55.61;52.68;66.20;;
49215;Laerm;45943;53.148;8.204;2022-07-17T09:47:31;57.31;52.53;85.71;;
49215;Laerm;45943;53.148;8.204;2022-07-17T09:49:58;56.14;53.23;62.86;;
49215;Laerm;45943;53.148;8.204;2022-07-17T09:52:29;56.38;52.71;69.19;;
49215;Laerm;45943;53.148;8.204;2022-07-17T09:54:57;59.56;53.17;76.80;;
49215;Laerm;45943;53.148;8.204;2022-07-17T09:57:28;55.97;53.62;58.96;;
49215;Laerm;45943;53.148;8.204;2022-07-17T09:59:58;55.86;53.32;58.11;;
49215;Laerm;45943;53.148;8.204;2022-07-17T10:02:24;56.01;53.20;58.40;;
49215;Laerm;45943;53.148;8.204;2022-07-17T10:04:51;56.06;53.57;58.98;;
49215;Laerm;45943;53.148;8.204;2022-07-17T10:07:18;56.19;53.50;58.47;;
49215;Laerm;45943;53.148;8.204;2022-07-17T10:09:45;56.09;52.34;63.80;;
49215;Laerm;45943;53.148;8.204;2022-07-17T10:12:11;55.92;52.73;63.25;;
49215;Laerm;45943;53.148;8.204;2022-07-17T10:14:40;55.51;52.64;61.88;;
49215;Laerm;45943;53.148;8.204;2022-07-17T10:19:32;56.07;53.34;63.65;;
49215;Laerm;45943;53.148;8.204;2022-07-17T10:22:00;56.32;53.87;63.76;;
49215;Laerm;45943;53.148;8.204;2022-07-17T10:24:30;59.17;53.54;72.86;;
49215;Laerm;45943;53.148;8.204;2022-07-17T10:26:57;56.67;53.99;62.24;;
49215;Laerm;45943;53.148;8.204;2022-07-17T10:29:36;66.64;53.45;80.08;;
49215;Laerm;45943;53.148;8.204;2022-07-17T10:32:08;57.96;53.38;72.43;;
49215;Laerm;45943;53.148;8.204;2022-07-17T10:34:39;57.73;52.95;68.18;;
49215;Laerm;45943;53.148;8.204;2022-07-17T10:39:54;60.66;53.14;74.50;;
49215;Laerm;45943;53.148;8.204;2022-07-17T10:43:01;55.68;53.05;63.48;;
49215;Laerm;45943;53.148;8.204;2022-07-17T10:50:49;56.57;53.02;65.24;;
49215;Laerm;45943;53.148;8.204;2022-07-17T10:55:48;55.46;53.26;62.54;;
49215;Laerm;45943;53.148;8.204;2022-07-17T11:00:41;55.40;53.40;57.69;;
49215;Laerm;45943;53.148;8.204;2022-07-17T11:03:11;55.73;53.14;60.97;;
49215;Laerm;45943;53.148;8.204;2022-07-17T11:05:38;56.08;53.03;71.63;;
49215;Laerm;45943;53.148;8.204;2022-07-17T11:08:04;57.42;52.84;73.79;;
49215;Laerm;45943;53.148;8.204;2022-07-17T11:10:35;45.72;36.80;57.90;;
49215;Laerm;45943;53.148;8.204;2022-07-17T11:13:15;43.10;36.80;68.94;;
49215;Laerm;45943;53.148;8.204;2022-07-17T11:15:45;40.80;37.51;48.53;;
49215;Laerm;45943;53.148;8.204;2022-07-17T11:18:21;41.97;37.72;59.99;;
49215;Laerm;45943;53.148;8.204;2022-07-17T11:20:50;43.79;37.72;57.92;;
49215;Laerm;45943;53.148;8.204;2022-07-17T11:23:17;60.50;40.30;77.56;;
49215;Laerm;45943;53.148;8.204;2022-07-17T11:25:55;42.75;38.65;55.44;;
49215;Laerm;45943;53.148;8.204;2022-07-17T11:28:38;46.72;38.48;69.17;;
49215;Laerm;45943;53.148;8.204;2022-07-17T11:31:16;45.53;39.12;60.85;;
49215;Laerm;45943;53.148;8.204;2022-07-17T11:33:53;51.52;39.12;74.24;;
49215;Laerm;45943;53.148;8.204;2022-07-17T11:36:26;44.04;38.97;58.88;;
49215;Laerm;45943;53.148;8.204;2022-07-17T11:38:54;59.13;39.34;72.72;;
49215;Laerm;45943;53.148;8.204;2022-07-17T11:41:21;50.95;41.22;72.79;;
49215;Laerm;45943;53.148;8.204;2022-07-17T11:43:47;45.78;39.59;62.99;;
49215;Laerm;45943;53.148;8.204;2022-07-17T11:46:14;45.64;38.65;65.80;;
49215;Laerm;45943;53.148;8.204;2022-07-17T11:48:43;47.08;38.97;68.28;;
49215;Laerm;45943;53.148;8.204;2022-07-17T11:51:10;53.39;40.06;69.75;;
49215;Laerm;45943;53.148;8.204;2022-07-17T11:53:38;47.20;39.47;72.34;;
49215;Laerm;45943;53.148;8.204;2022-07-17T11:56:05;46.29;41.03;64.40;;
49215;Laerm;45943;53.148;8.204;2022-07-17T11:58:43;44.32;40.06;53.91;;
49215;Laerm;45943;53.148;8.204;2022-07-17T12:01:09;47.71;40.52;68.26;;
49215;Laerm;45943;53.148;8.204;2022-07-17T12:03:35;47.51;42.56;58.73;;
49215;Laerm;45943;53.148;8.204;2022-07-17T12:06:01;48.45;41.31;63.63;;
49215;Laerm;45943;53.148;8.204;2022-07-17T12:08:27;44.69;39.55;59.11;;
49215;Laerm;45943;53.148;8.204;2022-07-17T12:11:20;44.50;39.41;59.62;;
49215;Laerm;45943;53.148;8.204;2022-07-17T12:13:47;43.08;39.12;50.24;;
49215;Laerm;45943;53.148;8.204;2022-07-17T12:16:21;45.00;39.81;54.93;;
49215;Laerm;45943;53.148;8.204;2022-07-17T12:18:58;45.43;40.93;58.29;;
49215;Laerm;45943;53.148;8.204;2022-07-17T12:21:26;44.74;40.52;56.68;;
49215;Laerm;45943;53.148;8.204;2022-07-17T12:24:04;60.92;39.68;76.97;;
49215;Laerm;45943;53.148;8.204;2022-07-17T12:26:31;42.67;39.68;54.33;;
49215;Laerm;45943;53.148;8.204;2022-07-17T12:28:58;42.34;39.12;49.50;;
49215;Laerm;45943;53.148;8.204;2022-07-17T12:31:25;43.04;38.81;55.17;;
49215;Laerm;45943;53.148;8.204;2022-07-17T12:33:54;43.05;38.30;54.59;;
49215;Laerm;45943;53.148;8.204;2022-07-17T12:36:22;44.51;38.81;63.85;;
49215;Laerm;45943;53.148;8.204;2022-07-17T12:38:48;45.73;38.97;65.83;;
49215;Laerm;45943;53.148;8.204;2022-07-17T12:41:14;59.02;38.12;73.64;;
49215;Laerm;45943;53.148;8.204;2022-07-17T12:43:40;49.63;39.34;73.01;;
49215;Laerm;45943;53.148;8.204;2022-07-17T12:46:06;42.55;39.27;57.56;;
49215;Laerm;45943;53.148;8.204;2022-07-17T12:48:33;43.99;38.65;58.55;;
49215;Laerm;45943;53.148;8.204;2022-07-17T12:50:59;48.11;38.81;63.84;;
49215;Laerm;45943;53.148;8.204;2022-07-17T12:53:25;42.25;37.51;56.89;;
49215;Laerm;45943;53.148;8.204;2022-07-17T12:55:51;50.26;38.97;72.47;;
49215;Laerm;45943;53.148;8.204;2022-07-17T12:58:17;47.37;38.62;62.27;;
49215;Laerm;45943;53.148;8.204;2022-07-17T13:00:43;48.29;39.81;67.60;;
49215;Laerm;45943;53.148;8.204;2022-07-17T13:03:09;65.68;44.04;80.97;;
49215;Laerm;45943;53.148;8.204;2022-07-17T13:05:35;50.51;40.41;72.39;;
49215;Laerm;45943;53.148;8.204;2022-07-17T13:08:01;52.34;41.13;75.70;;
49215;Laerm;45943;53.148;8.204;2022-07-17T13:10:27;57.70;40.83;77.37;;
49215;Laerm;45943;53.148;8.204;2022-07-17T13:12:53;56.81;53.03;72.58;;
49215;Laerm;45943;53.148;8.204;2022-07-17T13:15:19;55.80;52.42;63.84;;
49215;Laerm;45943;53.148;8.204;2022-07-17T13:17:45;56.41;53.85;67.93;;
49215;Laerm;45943;53.148;8.204;2022-07-17T13:20:11;56.37;53.22;67.73;;
49215;Laerm;45943;53.148;8.204;2022-07-17T13:22:38;64.07;53.70;79.83;;
49215;Laerm;45943;53.148;8.204;2022-07-17T13:25:04;56.46;53.38;73.65;;
49215;Laerm;45943;53.148;8.204;2022-07-17T13:27:30;56.72;53.27;70.32;;
49215;Laerm;45943;53.148;8.204;2022-07-17T13:29:56;57.61;52.68;78.42;;
49215;Laerm;45943;53.148;8.204;2022-07-17T13:32:22;56.74;54.22;70.09;;
49215;Laerm;45943;53.148;8.204;2022-07-17T13:34:48;56.44;53.73;66.99;;
49215;Laerm;45943;53.148;8.204;2022-07-17T13:37:14;56.39;53.64;64.18;;
49215;Laerm;45943;53.148;8.204;2022-07-17T13:39:40;56.19;53.60;61.09;;
49215;Laerm;45943;53.148;8.204;2022-07-17T13:42:06;60.76;53.57;75.93;;
49215;Laerm;45943;53.148;8.204;2022-07-17T13:44:34;57.42;53.92;66.22;;
49215;Laerm;45943;53.148;8.204;2022-07-17T13:47:00;67.71;53.96;78.23;;
49215;Laerm;45943;53.148;8.204;2022-07-17T13:49:25;59.92;54.22;75.36;;
49215;Laerm;45943;53.148;8.204;2022-07-17T13:51:51;57.81;54.31;66.10;;
49215;Laerm;45943;53.148;8.204;2022-07-17T13:54:17;57.49;53.76;60.83;;
49215;Laerm;45943;53.148;8.204;2022-07-17T13:56:44;57.34;54.13;62.26;;
49215;Laerm;45943;53.148;8.204;2022-07-17T13:59:09;56.49;53.30;68.46;;
49215;Laerm;45943;53.148;8.204;2022-07-17T14:01:35;52.93;41.40;80.72;;